Time;durP1;ratioP1;P1;durP2;ratioP2;P2;SDS_P1;SDS_P2;PMS_P1;PMS_P2;Temp;Humidity;BMP_temperature;BMP_pressure;BME280_temperature;BME280_humidity;BME280_pressure;Samples;Min_cycle;Max_cycle;Signal;HPM_P1;HPM_P2
2023/04/30 00:01:50;;;;;;;3.38;3.17;;;;;;;;;;5081659;28;20207;-68
2023/04/30 00:04:16;;;;;;;4.07;3.45;;;;;;;;;;5081231;28;20197;-68
2023/04/30 00:06:43;;;;;;;3.83;3.50;;;;;;;;;;5081511;28;20196;-68
2023/04/30 00:09:09;;;;;;;3.78;3.47;;;;;;;;;;5081190;28;20254;-68
2023/04/30 00:11:35;;;;;;;3.45;3.10;;;;;;;;;;5081509;28;20196;-68
2023/04/30 00:14:03;;;;;;;4.32;3.03;;;;;;;;;;5081016;28;20220;-68
2023/04/30 00:16:29;;;;;;;3.38;2.88;;;;;;;;;;5082817;28;20204;-68
2023/04/30 00:18:56;;;;;;;3.65;2.90;;;;;;;;;;5084646;28;20204;-68
2023/04/30 00:21:22;;;;;;;3.13;2.83;;;;;;;;;;5084818;28;20204;-68
2023/04/30 00:23:48;;;;;;;3.83;3.63;;;;;;;;;;5084827;28;20254;-68
2023/04/30 00:26:15;;;;;;;3.75;3.13;;;;;;;;;;5084581;28;20262;-68
2023/04/30 00:28:41;;;;;;;3.97;3.55;;;;;;;;;;5084301;28;20238;-68
2023/04/30 00:31:09;;;;;;;3.33;3.10;;;;;;;;;;5084828;28;20207;-68
2023/04/30 00:33:35;;;;;;;2.92;2.83;;;;;;;;;;5076802;28;20430;-68
2023/04/30 00:36:01;;;;;;;3.65;3.45;;;;;;;;;;5084540;28;20231;-68
2023/04/30 00:38:28;;;;;;;3.85;3.55;;;;;;;;;;5084322;28;20200;-68
2023/04/30 00:40:54;;;;;;;3.13;3.03;;;;;;;;;;5084494;28;20200;-68
2023/04/30 00:43:20;;;;;;;5.05;3.63;;;;;;;;;;5084268;28;20234;-68
2023/04/30 00:45:46;;;;;;;3.83;3.58;;;;;;;;;;5084649;28;20203;-68
2023/04/30 00:48:14;;;;;;;3.92;3.53;;;;;;;;;;5084317;28;20207;-68
2023/04/30 00:50:41;;;;;;;3.38;3.17;;;;;;;;;;5084420;28;20200;-68
2023/04/30 00:53:07;;;;;;;4.68;3.40;;;;;;;;;;5084243;28;20200;-68
2023/04/30 00:55:34;;;;;;;3.55;3.20;;;;;;;;;;5084004;28;20238;-68
2023/04/30 00:58:00;;;;;;;4.20;3.50;;;;;;;;;;5084058;28;20207;-68
2023/04/30 01:00:27;;;;;;;3.50;3.20;;;;;;;;;;5084280;28;20200;-68
2023/04/30 01:02:53;;;;;;;4.03;3.38;;;;;;;;;;5084205;28;20220;-68
2023/04/30 01:05:21;;;;;;;3.97;3.67;;;;;;;;;;5083855;28;20200;-68
2023/04/30 01:07:48;;;;;;;3.30;3.10;;;;;;;;;;5084011;28;20220;-68
2023/04/30 01:10:15;;;;;;;4.20;3.42;;;;;;;;;;5083543;28;20442;-68
2023/04/30 01:12:44;;;;;;;4.50;4.13;;;;;;;;;;5083465;28;20204;-68
2023/04/30 01:15:15;;;;;;;4.63;4.15;;;;;;;;;;5084207;28;20279;-68
2023/04/30 01:17:44;;;;;;;5.63;4.07;;;;;;;;;;5076043;28;20278;-68
2023/04/30 01:20:11;;;;;;;3.88;3.63;;;;;;;;;;5083985;28;20204;-68
2023/04/30 01:22:45;;;;;;;4.00;3.60;;;;;;;;;;5075372;28;20288;-68
2023/04/30 01:25:21;;;;;;;4.18;3.90;;;;;;;;;;5083618;28;20197;-68
2023/04/30 01:27:54;;;;;;;3.78;3.58;;;;;;;;;;5082428;28;20235;-68
2023/04/30 01:30:22;;;;;;;4.18;3.78;;;;;;;;;;5083263;28;20216;-68
2023/04/30 01:32:48;;;;;;;3.63;3.45;;;;;;;;;;5083764;28;20429;-68
2023/04/30 01:35:15;;;;;;;4.68;4.13;;;;;;;;;;5083386;28;20454;-68
2023/04/30 01:37:45;;;;;;;3.65;3.42;;;;;;;;;;5083396;28;20220;-68
2023/04/30 01:40:21;;;;;;;3.85;3.65;;;;;;;;;;5083241;28;20231;-68
2023/04/30 01:42:52;;;;;;;3.97;3.67;;;;;;;;;;5076339;28;20204;-68
2023/04/30 01:45:25;;;;;;;3.88;3.67;;;;;;;;;;5083116;28;20208;-68
2023/04/30 01:47:54;;;;;;;3.72;3.55;;;;;;;;;;5083194;28;20208;-68
2023/04/30 01:50:24;;;;;;;4.30;4.00;;;;;;;;;;5083053;28;20242;-68
2023/04/30 01:52:52;;;;;;;5.13;4.03;;;;;;;;;;5083406;28;20262;-68
2023/04/30 01:55:23;;;;;;;3.97;3.72;;;;;;;;;;5083039;28;20232;-68
2023/04/30 01:57:54;;;;;;;4.93;4.45;;;;;;;;;;5082951;28;20261;-68
2023/04/30 02:00:21;;;;;;;5.05;4.60;;;;;;;;;;5082836;28;20204;-68
2023/04/30 02:02:48;;;;;;;5.25;4.40;;;;;;;;;;5082907;28;20196;-68
2023/04/30 02:05:14;;;;;;;6.13;5.55;;;;;;;;;;5082774;28;20201;-68
2023/04/30 02:07:40;;;;;;;5.57;5.07;;;;;;;;;;5082718;28;20196;-68
2023/04/30 02:10:07;;;;;;;5.40;4.90;;;;;;;;;;5083104;28;20208;-68
2023/04/30 02:12:33;;;;;;;5.50;5.10;;;;;;;;;;5082861;28;20200;-68
2023/04/30 02:15:00;;;;;;;6.75;5.70;;;;;;;;;;5082743;28;20258;-68
2023/04/30 02:17:27;;;;;;;5.82;5.32;;;;;;;;;;5082575;28;20200;-68
2023/04/30 02:19:53;;;;;;;5.30;4.90;;;;;;;;;;5082307;28;20200;-68
2023/04/30 02:22:20;;;;;;;5.00;4.38;;;;;;;;;;5082381;28;20200;-68
2023/04/30 02:24:46;;;;;;;4.93;4.55;;;;;;;;;;5082621;28;20200;-68
2023/04/30 02:27:12;;;;;;;6.00;5.40;;;;;;;;;;5082590;28;20243;-68
2023/04/30 02:29:39;;;;;;;5.47;5.00;;;;;;;;;;5082272;28;20456;-68
2023/04/30 02:32:05;;;;;;;5.88;5.28;;;;;;;;;;5082516;28;20200;-68
2023/04/30 02:34:33;;;;;;;5.90;5.25;;;;;;;;;;5082212;28;20224;-68
2023/04/30 02:36:59;;;;;;;6.00;5.45;;;;;;;;;;5082385;28;20208;-68
2023/04/30 02:39:25;;;;;;;6.18;5.55;;;;;;;;;;5082145;28;20276;-68
2023/04/30 02:41:52;;;;;;;4.80;4.50;;;;;;;;;;5082367;28;20388;-68
2023/04/30 02:44:18;;;;;;;6.63;5.35;;;;;;;;;;5082058;28;20196;-68
2023/04/30 02:46:44;;;;;;;5.38;4.75;;;;;;;;;;5082164;28;20430;-68
2023/04/30 02:49:10;;;;;;;5.03;4.60;;;;;;;;;;5082000;28;20504;-68
2023/04/30 02:51:38;;;;;;;5.00;4.65;;;;;;;;;;5082355;28;20431;-68
2023/04/30 02:54:04;;;;;;;4.90;4.50;;;;;;;;;;5082199;28;20453;-68
2023/04/30 02:56:31;;;;;;;5.88;5.28;;;;;;;;;;5082024;28;20504;-68
2023/04/30 02:58:57;;;;;;;5.88;5.10;;;;;;;;;;5081953;28;20554;-68
2023/04/30 03:01:23;;;;;;;5.38;4.88;;;;;;;;;;5081882;28;20212;-68
2023/04/30 03:03:49;;;;;;;5.22;4.80;;;;;;;;;;5081999;28;20504;-68
2023/04/30 03:06:16;;;;;;;5.10;4.60;;;;;;;;;;5081775;28;20246;-68
2023/04/30 03:08:43;;;;;;;5.93;5.40;;;;;;;;;;5082023;28;20233;-67
2023/04/30 03:11:09;;;;;;;6.07;5.50;;;;;;;;;;5082105;28;20246;-67
2023/04/30 03:13:36;;;;;;;6.05;5.28;;;;;;;;;;5081816;28;20208;-67
2023/04/30 03:16:03;;;;;;;6.72;5.50;;;;;;;;;;5081680;28;20220;-67
2023/04/30 03:18:30;;;;;;;6.65;5.65;;;;;;;;;;5081489;28;20504;-67
2023/04/30 03:20:57;;;;;;;6.22;5.68;;;;;;;;;;5082235;28;20344;-67
2023/04/30 03:23:23;;;;;;;6.22;4.97;;;;;;;;;;5081642;28;20283;-67
2023/04/30 03:25:51;;;;;;;6.28;5.03;;;;;;;;;;5081893;28;20545;-67
2023/04/30 03:28:17;;;;;;;6.25;5.65;;;;;;;;;;5081677;28;20457;-68
2023/04/30 03:30:43;;;;;;;6.15;5.55;;;;;;;;;;5081614;28;20438;-68
2023/04/30 03:33:09;;;;;;;5.47;5.07;;;;;;;;;;5081590;28;20508;-68
2023/04/30 03:35:36;;;;;;;6.47;5.45;;;;;;;;;;5081696;28;20539;-68
2023/04/30 03:38:02;;;;;;;5.90;5.30;;;;;;;;;;5081918;28;20342;-68
2023/04/30 03:40:28;;;;;;;5.95;5.22;;;;;;;;;;5081490;28;20550;-66
2023/04/30 03:42:56;;;;;;;5.35;4.80;;;;;;;;;;5081568;28;20437;-67
2023/04/30 03:45:22;;;;;;;8.40;5.20;;;;;;;;;;5081497;28;20557;-67
2023/04/30 03:47:50;;;;;;;5.90;5.28;;;;;;;;;;5081418;28;20211;-67
2023/04/30 03:50:17;;;;;;;5.75;4.82;;;;;;;;;;5081764;28;20239;-67
2023/04/30 03:52:43;;;;;;;5.55;5.15;;;;;;;;;;5084944;28;20212;-67
2023/04/30 03:55:10;;;;;;;5.68;5.28;;;;;;;;;;5085215;28;20224;-67
2023/04/30 03:57:36;;;;;;;5.95;5.50;;;;;;;;;;5085143;28;20261;-67
2023/04/30 04:00:06;;;;;;;6.20;5.63;;;;;;;;;;5085007;28;20207;-67
2023/04/30 04:02:33;;;;;;;7.75;5.70;;;;;;;;;;5084964;28;20208;-67
2023/04/30 04:04:59;;;;;;;6.13;5.63;;;;;;;;;;5085298;28;20197;-67
2023/04/30 04:07:25;;;;;;;6.00;5.45;;;;;;;;;;5084923;28;20200;-67
2023/04/30 04:09:51;;;;;;;5.72;5.25;;;;;;;;;;5085039;28;20204;-67
2023/04/30 04:12:18;;;;;;;6.07;5.28;;;;;;;;;;5084926;28;20200;-67
2023/04/30 04:14:44;;;;;;;7.80;5.57;;;;;;;;;;5084734;28;20254;-67
2023/04/30 04:17:12;;;;;;;5.88;5.38;;;;;;;;;;5085001;28;20286;-68
2023/04/30 04:19:39;;;;;;;5.90;5.40;;;;;;;;;;5084709;28;20201;-68
2023/04/30 04:22:05;;;;;;;5.88;5.32;;;;;;;;;;5084901;28;20227;-68
2023/04/30 04:24:32;;;;;;;6.10;5.50;;;;;;;;;;5085134;28;20197;-68
2023/04/30 04:26:58;;;;;;;5.53;5.13;;;;;;;;;;5085069;28;20224;-68
2023/04/30 04:29:24;;;;;;;5.93;5.50;;;;;;;;;;5084302;28;20201;-68
2023/04/30 04:31:50;;;;;;;7.43;5.75;;;;;;;;;;5084918;28;20507;-68
2023/04/30 04:34:18;;;;;;;6.38;5.88;;;;;;;;;;5084693;28;20206;-68
2023/04/30 04:36:45;;;;;;;7.90;5.80;;;;;;;;;;5084760;28;20208;-68
2023/04/30 04:39:12;;;;;;;11.68;8.80;;;;;;;;;;5084431;28;20267;-68
2023/04/30 04:41:38;;;;;;;6.20;5.60;;;;;;;;;;5084356;28;20208;-68
2023/04/30 04:44:04;;;;;;;8.07;6.25;;;;;;;;;;5084807;28;20212;-68
2023/04/30 04:46:31;;;;;;;6.95;6.45;;;;;;;;;;5084400;28;20200;-68
2023/04/30 04:48:58;;;;;;;8.40;7.60;;;;;;;;;;5084240;28;20200;-68
2023/04/30 04:51:25;;;;;;;8.57;7.78;;;;;;;;;;5084349;28;20309;-68
2023/04/30 04:53:52;;;;;;;7.95;6.95;;;;;;;;;;5084396;28;20200;-68
2023/04/30 04:56:18;;;;;;;8.35;7.47;;;;;;;;;;5084065;28;20223;-68
2023/04/30 04:58:44;;;;;;;9.43;7.15;;;;;;;;;;5083827;28;20209;-68
2023/04/30 05:01:10;;;;;;;8.35;7.10;;;;;;;;;;5084254;28;20207;-68
2023/04/30 05:03:37;;;;;;;8.52;7.75;;;;;;;;;;5084282;28;20205;-68
2023/04/30 05:06:04;;;;;;;8.18;7.40;;;;;;;;;;5084006;28;20448;-68
2023/04/30 05:08:31;;;;;;;7.43;6.57;;;;;;;;;;5083810;28;20228;-68
2023/04/30 05:10:57;;;;;;;7.90;7.20;;;;;;;;;;5083987;28;20433;-68
2023/04/30 05:13:24;;;;;;;8.20;7.40;;;;;;;;;;5083992;28;20250;-68
2023/04/30 05:15:51;;;;;;;7.60;6.90;;;;;;;;;;5075736;28;20216;-68
2023/04/30 05:18:17;;;;;;;10.07;7.57;;;;;;;;;;5083845;28;20399;-68
2023/04/30 05:20:43;;;;;;;7.57;6.90;;;;;;;;;;5083689;28;20242;-68
2023/04/30 05:23:10;;;;;;;8.73;7.82;;;;;;;;;;5083725;28;20238;-68
2023/04/30 05:25:37;;;;;;;8.15;7.45;;;;;;;;;;5083474;28;20201;-68
2023/04/30 05:28:05;;;;;;;9.15;8.07;;;;;;;;;;5083699;28;20224;-68
2023/04/30 05:30:31;;;;;;;9.27;7.80;;;;;;;;;;5083359;28;20206;-68
2023/04/30 05:32:57;;;;;;;8.52;7.72;;;;;;;;;;5083617;28;20222;-68
2023/04/30 05:35:24;;;;;;;8.90;7.85;;;;;;;;;;5083428;28;20558;-68
2023/04/30 05:37:50;;;;;;;8.80;7.78;;;;;;;;;;5083317;28;20314;-68
2023/04/30 05:40:17;;;;;;;8.98;8.18;;;;;;;;;;5082992;28;20200;-68
2023/04/30 05:42:44;;;;;;;9.55;8.55;;;;;;;;;;5083544;28;20223;-68
2023/04/30 05:45:13;;;;;;;8.07;7.40;;;;;;;;;;5083439;28;20200;-68
2023/04/30 05:47:39;;;;;;;9.55;8.18;;;;;;;;;;5083345;28;20267;-69
2023/04/30 05:50:06;;;;;;;8.13;7.43;;;;;;;;;;5083132;28;20197;-68
2023/04/30 05:52:33;;;;;;;8.27;6.95;;;;;;;;;;5083193;28;20512;-68
2023/04/30 05:54:59;;;;;;;8.70;7.90;;;;;;;;;;5082820;28;20220;-68
2023/04/30 05:57:25;;;;;;;9.20;8.40;;;;;;;;;;5083121;28;20247;-68
2023/04/30 05:59:53;;;;;;;8.85;8.05;;;;;;;;;;5083038;28;20204;-68
2023/04/30 06:02:19;;;;;;;8.55;7.75;;;;;;;;;;5082786;28;20200;-68
2023/04/30 06:04:47;;;;;;;8.60;7.75;;;;;;;;;;5083269;28;20500;-68
2023/04/30 06:07:13;;;;;;;9.18;7.97;;;;;;;;;;5082699;28;20204;-68
2023/04/30 06:09:39;;;;;;;8.00;7.30;;;;;;;;;;5082736;28;20454;-68
2023/04/30 06:12:06;;;;;;;8.65;7.85;;;;;;;;;;5082976;28;20220;-68
2023/04/30 06:14:32;;;;;;;8.73;7.93;;;;;;;;;;5082041;28;20211;-68
2023/04/30 06:16:59;;;;;;;8.90;7.35;;;;;;;;;;5082927;28;20458;-68
2023/04/30 06:19:26;;;;;;;8.45;7.65;;;;;;;;;;5082383;28;20430;-68
2023/04/30 06:21:52;;;;;;;12.45;7.82;;;;;;;;;;5082361;28;20204;-68
2023/04/30 06:24:18;;;;;;;8.43;7.63;;;;;;;;;;5082608;28;20200;-68
2023/04/30 06:26:44;;;;;;;7.88;7.18;;;;;;;;;;5082446;28;20430;-68
2023/04/30 06:29:11;;;;;;;7.50;6.85;;;;;;;;;;5082432;28;20266;-68
2023/04/30 06:31:37;;;;;;;7.75;7.05;;;;;;;;;;5082536;28;20200;-68
2023/04/30 06:34:05;;;;;;;8.18;7.40;;;;;;;;;;5082653;28;20200;-69
2023/04/30 06:36:31;;;;;;;7.57;6.90;;;;;;;;;;5082361;28;20220;-68
2023/04/30 06:38:57;;;;;;;7.88;7.13;;;;;;;;;;5082434;28;20197;-68
2023/04/30 06:41:23;;;;;;;7.40;6.70;;;;;;;;;;5082617;28;20197;-68
2023/04/30 06:43:50;;;;;;;8.40;7.60;;;;;;;;;;5082478;28;20215;-68
2023/04/30 06:46:16;;;;;;;13.45;11.18;;;;;;;;;;5082930;28;20192;-69
2023/04/30 06:48:42;;;;;;;8.38;7.63;;;;;;;;;;5082115;28;20197;-69
2023/04/30 06:51:10;;;;;;;7.25;6.65;;;;;;;;;;5082289;28;20205;-69
2023/04/30 06:53:36;;;;;;;9.30;7.45;;;;;;;;;;5082421;28;20197;-69
2023/04/30 06:56:03;;;;;;;9.55;6.97;;;;;;;;;;5082561;28;20220;-69
2023/04/30 06:58:29;;;;;;;7.57;6.97;;;;;;;;;;5082264;28;20196;-69
2023/04/30 07:00:55;;;;;;;7.40;6.05;;;;;;;;;;5082305;28;20196;-69
2023/04/30 07:03:21;;;;;;;7.43;6.82;;;;;;;;;;5082194;28;20204;-69
2023/04/30 07:05:47;;;;;;;9.07;7.50;;;;;;;;;;5082148;28;20231;-69
2023/04/30 07:08:15;;;;;;;9.10;7.18;;;;;;;;;;5082129;28;20238;-69
2023/04/30 07:10:41;;;;;;;8.02;6.70;;;;;;;;;;5082259;28;20234;-69
2023/04/30 07:13:08;;;;;;;8.30;7.60;;;;;;;;;;5082129;28;20246;-69
2023/04/30 07:15:34;;;;;;;7.03;6.53;;;;;;;;;;5081846;28;20227;-69
2023/04/30 07:18:00;;;;;;;8.10;7.22;;;;;;;;;;5081966;28;20230;-69
2023/04/30 07:20:26;;;;;;;7.38;6.78;;;;;;;;;;5082194;28;20207;-69
2023/04/30 07:22:54;;;;;;;6.47;5.90;;;;;;;;;;5082037;28;20270;-69
2023/04/30 07:25:22;;;;;;;6.85;6.25;;;;;;;;;;5082217;28;20192;-69
2023/04/30 07:27:48;;;;;;;6.95;6.35;;;;;;;;;;5085706;28;20261;-69
2023/04/30 07:30:14;;;;;;;7.13;5.90;;;;;;;;;;5085815;28;20196;-69
2023/04/30 07:32:41;;;;;;;7.75;6.13;;;;;;;;;;5086365;28;20196;-69
2023/04/30 07:35:08;;;;;;;6.50;6.10;;;;;;;;;;5086119;28;20231;-69
2023/04/30 07:37:34;;;;;;;6.75;6.20;;;;;;;;;;5086045;28;20200;-69
2023/04/30 07:40:00;;;;;;;6.78;6.22;;;;;;;;;;5085803;28;20515;-69
2023/04/30 07:42:28;;;;;;;5.75;5.25;;;;;;;;;;5085933;28;20370;-69
2023/04/30 07:44:54;;;;;;;5.63;5.32;;;;;;;;;;5085583;28;20204;-69
2023/04/30 07:47:20;;;;;;;5.95;5.45;;;;;;;;;;5085653;28;20200;-69
2023/04/30 07:49:47;;;;;;;5.85;5.35;;;;;;;;;;5085538;28;20226;-69
2023/04/30 07:52:13;;;;;;;5.78;5.28;;;;;;;;;;5085754;28;20445;-69
2023/04/30 07:54:39;;;;;;;5.50;5.10;;;;;;;;;;5085688;28;20574;-69
2023/04/30 07:57:06;;;;;;;6.72;5.40;;;;;;;;;;5085399;28;20273;-69
2023/04/30 07:59:33;;;;;;;37.72;22.80;;;;;;;;;;5085430;28;20196;-69
2023/04/30 08:02:00;;;;;;;5.20;4.80;;;;;;;;;;5077483;28;20196;-69
2023/04/30 08:04:27;;;;;;;5.43;4.97;;;;;;;;;;5085375;28;20242;-69
2023/04/30 08:06:53;;;;;;;4.90;4.60;;;;;;;;;;5085067;28;20200;-69
2023/04/30 08:09:19;;;;;;;4.88;4.57;;;;;;;;;;5085107;28;20200;-69
2023/04/30 08:11:45;;;;;;;5.22;4.78;;;;;;;;;;5085138;28;20220;-69
2023/04/30 08:14:12;;;;;;;5.50;5.03;;;;;;;;;;5085079;28;20222;-69
2023/04/30 08:16:39;;;;;;;5.93;4.30;;;;;;;;;;5084871;28;20224;-69
2023/04/30 08:19:05;;;;;;;4.70;4.30;;;;;;;;;;5085037;28;20234;-69
2023/04/30 08:21:32;;;;;;;4.50;4.10;;;;;;;;;;5085351;28;20200;-69
2023/04/30 08:23:58;;;;;;;4.28;3.97;;;;;;;;;;5084995;28;20196;-69
2023/04/30 08:26:25;;;;;;;4.20;4.00;;;;;;;;;;5084947;28;20197;-69
2023/04/30 08:28:51;;;;;;;4.13;3.90;;;;;;;;;;5084547;28;20220;-69
2023/04/30 08:31:18;;;;;;;4.18;3.83;;;;;;;;;;5084822;28;20369;-69
2023/04/30 08:33:45;;;;;;;5.40;4.93;;;;;;;;;;5084977;28;20242;-69
2023/04/30 08:36:12;;;;;;;3.58;3.28;;;;;;;;;;5084629;28;20213;-69
2023/04/30 08:38:38;;;;;;;3.10;3.00;;;;;;;;;;5084227;28;20203;-69
2023/04/30 08:41:08;;;;;;;5.82;5.35;;;;;;;;;;5084753;28;20238;-69
2023/04/30 08:43:35;;;;;;;12.40;9.77;;;;;;;;;;5084517;28;20250;-69
2023/04/30 08:46:01;;;;;;;4.15;3.90;;;;;;;;;;5084919;28;20384;-69
2023/04/30 08:48:27;;;;;;;9.40;7.25;;;;;;;;;;5084319;28;20212;-69
2023/04/30 08:50:55;;;;;;;4.45;4.20;;;;;;;;;;5084418;28;20206;-69
2023/04/30 08:53:21;;;;;;;6.25;4.15;;;;;;;;;;5084478;28;20523;-69
2023/04/30 08:55:48;;;;;;;4.45;3.75;;;;;;;;;;5084771;28;20261;-69
2023/04/30 08:58:14;;;;;;;3.55;3.35;;;;;;;;;;5084357;28;20196;-69
2023/04/30 09:00:41;;;;;;;3.63;3.30;;;;;;;;;;5084077;28;20224;-69
2023/04/30 09:03:08;;;;;;;3.90;3.47;;;;;;;;;;5084483;28;20196;-69
2023/04/30 09:05:34;;;;;;;3.70;3.40;;;;;;;;;;5084368;28;20512;-69
2023/04/30 09:08:02;;;;;;;3.58;3.35;;;;;;;;;;5084201;28;20197;-69
2023/04/30 09:10:31;;;;;;;3.65;3.45;;;;;;;;;;5084074;28;20246;-69
2023/04/30 09:12:58;;;;;;;3.35;2.92;;;;;;;;;;5084371;28;20442;-69
2023/04/30 09:15:24;;;;;;;3.28;3.10;;;;;;;;;;5084187;28;20197;-69
2023/04/30 09:17:50;;;;;;;4.40;2.88;;;;;;;;;;5083867;28;20243;-69
2023/04/30 09:20:17;;;;;;;3.08;2.85;;;;;;;;;;5083824;28;20242;-69
2023/04/30 09:22:43;;;;;;;2.50;2.40;;;;;;;;;;5083848;28;20196;-69
2023/04/30 09:25:11;;;;;;;3.00;2.80;;;;;;;;;;5083737;28;20218;-69
2023/04/30 09:27:37;;;;;;;2.47;2.38;;;;;;;;;;5083770;28;20212;-69
2023/04/30 09:30:04;;;;;;;2.75;2.47;;;;;;;;;;5083719;28;20197;-69
2023/04/30 09:32:31;;;;;;;2.28;2.17;;;;;;;;;;5083892;28;20196;-69
2023/04/30 09:34:57;;;;;;;2.88;2.67;;;;;;;;;;5083769;28;20569;-69
2023/04/30 09:37:34;;;;;;;2.53;2.33;;;;;;;;;;5083613;28;20543;-69
2023/04/30 09:40:00;;;;;;;2.88;2.65;;;;;;;;;;5083302;28;20245;-69
2023/04/30 09:42:28;;;;;;;2.70;2.58;;;;;;;;;;5083682;28;20196;-69
2023/04/30 09:44:54;;;;;;;2.05;1.95;;;;;;;;;;5083469;28;20204;-69
2023/04/30 09:47:21;;;;;;;2.72;2.63;;;;;;;;;;5083352;28;20200;-69
2023/04/30 09:49:50;;;;;;;2.38;2.28;;;;;;;;;;5082216;28;20196;-69
2023/04/30 09:52:16;;;;;;;2.20;2.10;;;;;;;;;;5083249;28;20234;-69
2023/04/30 09:54:43;;;;;;;2.47;2.28;;;;;;;;;;5083476;28;20496;-69
2023/04/30 09:57:10;;;;;;;2.40;2.20;;;;;;;;;;5083239;28;20209;-69
2023/04/30 09:59:39;;;;;;;2.85;2.45;;;;;;;;;;5083318;28;20200;-69
2023/04/30 10:02:06;;;;;;;2.38;2.38;;;;;;;;;;5083185;28;20196;-69
2023/04/30 10:04:34;;;;;;;2.85;2.60;;;;;;;;;;5083228;28;20196;-69
2023/04/30 10:07:01;;;;;;;2.60;2.40;;;;;;;;;;5082853;28;20242;-69
2023/04/30 10:09:30;;;;;;;2.90;2.70;;;;;;;;;;5083023;28;20196;-69
2023/04/30 10:11:57;;;;;;;2.45;2.35;;;;;;;;;;5082971;28;20204;-69
2023/04/30 10:14:25;;;;;;;2.08;2.00;;;;;;;;;;5082618;28;20210;-69
2023/04/30 10:16:56;;;;;;;2.03;1.92;;;;;;;;;;5082715;28;20220;-69
2023/04/30 10:19:23;;;;;;;2.38;2.28;;;;;;;;;;5082620;28;20272;-69
2023/04/30 10:21:50;;;;;;;2.30;2.20;;;;;;;;;;5083003;28;20249;-69
2023/04/30 10:24:18;;;;;;;2.30;2.20;;;;;;;;;;5082984;28;20204;-69
2023/04/30 10:26:44;;;;;;;2.17;2.08;;;;;;;;;;5082689;28;20392;-69
2023/04/30 10:29:12;;;;;;;1.95;1.85;;;;;;;;;;5082298;28;20419;-69
2023/04/30 10:31:39;;;;;;;2.13;1.90;;;;;;;;;;5082668;28;20197;-69
2023/04/30 10:34:11;;;;;;;1.98;1.88;;;;;;;;;;5082312;28;20196;-69
2023/04/30 10:36:40;;;;;;;2.22;2.03;;;;;;;;;;5082440;28;20557;-69
2023/04/30 10:39:07;;;;;;;2.25;2.15;;;;;;;;;;5082299;28;20504;-69
2023/04/30 10:41:33;;;;;;;2.08;1.80;;;;;;;;;;5082503;28;20203;-69
2023/04/30 10:44:01;;;;;;;2.30;2.20;;;;;;;;;;5082573;28;20200;-69
2023/04/30 10:46:28;;;;;;;2.17;2.08;;;;;;;;;;5082466;28;20571;-69
2023/04/30 10:48:54;;;;;;;1.90;1.90;;;;;;;;;;5082048;28;20208;-69
2023/04/30 10:51:22;;;;;;;2.13;2.03;;;;;;;;;;5082624;28;20404;-69
2023/04/30 10:53:50;;;;;;;1.70;1.60;;;;;;;;;;5082570;28;20370;-69
2023/04/30 10:56:28;;;;;;;2.25;1.98;;;;;;;;;;5082322;28;20219;-69
2023/04/30 10:58:58;;;;;;;2.47;2.38;;;;;;;;;;5082013;28;20192;-69
2023/04/30 11:01:25;;;;;;;2.72;2.53;;;;;;;;;;5082354;28;20200;-69
2023/04/30 11:04:04;;;;;;;3.28;3.08;;;;;;;;;;5082350;28;20200;-69
2023/04/30 11:06:48;;;;;;;3.15;2.95;;;;;;;;;;5082275;28;20196;-69
2023/04/30 11:09:15;;;;;;;2.50;2.40;;;;;;;;;;5074353;28;20263;-69
2023/04/30 11:11:43;;;;;;;2.40;2.08;;;;;;;;;;5082294;28;20219;-69
2023/04/30 11:14:11;;;;;;;1.95;1.85;;;;;;;;;;5081926;28;20267;-69
2023/04/30 11:16:37;;;;;;;2.50;2.30;;;;;;;;;;5081900;28;20228;-69
2023/04/30 11:19:07;;;;;;;3.50;2.47;;;;;;;;;;5081899;28;20443;-69
2023/04/30 11:21:33;;;;;;;2.40;2.30;;;;;;;;;;5082081;28;20211;-69
2023/04/30 11:24:03;;;;;;;3.33;2.45;;;;;;;;;;5081748;28;20200;-69
2023/04/30 11:26:30;;;;;;;2.30;2.17;;;;;;;;;;5082128;28;20196;-69
2023/04/30 11:28:57;;;;;;;2.47;2.38;;;;;;;;;;5081814;28;20220;-69
2023/04/30 11:31:32;;;;;;;3.58;2.20;;;;;;;;;;5082126;28;20267;-69
2023/04/30 11:34:00;;;;;;;2.30;2.20;;;;;;;;;;5081815;28;20539;-69
2023/04/30 11:36:28;;;;;;;2.55;2.45;;;;;;;;;;5081762;28;20215;-69
2023/04/30 11:38:54;;;;;;;2.13;2.10;;;;;;;;;;5081720;28;20205;-67
2023/04/30 11:41:26;;;;;;;2.40;2.15;;;;;;;;;;5082035;28;20197;-68
2023/04/30 11:43:52;;;;;;;2.20;2.13;;;;;;;;;;5081949;28;20200;-68
2023/04/30 11:46:18;;;;;;;2.33;2.13;;;;;;;;;;5081922;28;20197;-68
2023/04/30 11:48:46;;;;;;;2.25;2.15;;;;;;;;;;5081544;28;20535;-68
2023/04/30 11:51:14;;;;;;;1.90;1.80;;;;;;;;;;5082034;28;20203;-68
2023/04/30 11:53:41;;;;;;;4.20;2.47;;;;;;;;;;5082063;28;20218;-68
2023/04/30 11:56:07;;;;;;;2.17;2.08;;;;;;;;;;5081680;28;20207;-68
2023/04/30 11:58:36;;;;;;;2.03;1.92;;;;;;;;;;5081309;28;20217;-68
2023/04/30 12:01:03;;;;;;;2.42;2.33;;;;;;;;;;5081784;28;20200;-68
2023/04/30 12:03:29;;;;;;;3.90;2.72;;;;;;;;;;5081555;28;20200;-68
2023/04/30 12:05:56;;;;;;;2.75;2.55;;;;;;;;;;5081672;28;20235;-68
2023/04/30 12:08:23;;;;;;;2.17;2.08;;;;;;;;;;5081603;28;20196;-68
2023/04/30 12:10:49;;;;;;;2.13;2.13;;;;;;;;;;5081659;28;20200;-68
2023/04/30 12:13:15;;;;;;;2.42;2.20;;;;;;;;;;5084153;28;20429;-68
2023/04/30 12:15:56;;;;;;;2.00;1.90;;;;;;;;;;5085262;28;20203;-68
2023/04/30 12:18:23;;;;;;;1.98;1.88;;;;;;;;;;5077927;28;20257;-68
2023/04/30 12:20:49;;;;;;;2.40;2.30;;;;;;;;;;5085604;28;20200;-68
2023/04/30 12:23:16;;;;;;;2.95;2.22;;;;;;;;;;5085567;28;20231;-68
2023/04/30 12:25:42;;;;;;;2.30;2.20;;;;;;;;;;5085308;28;20200;-68
2023/04/30 12:28:09;;;;;;;2.58;2.47;;;;;;;;;;5085125;28;20591;-68
2023/04/30 12:30:36;;;;;;;2.80;2.60;;;;;;;;;;5084689;28;20259;-68
2023/04/30 12:33:04;;;;;;;4.63;2.70;;;;;;;;;;5085146;28;20207;-68
2023/04/30 12:35:31;;;;;;;3.10;2.50;;;;;;;;;;5085087;28;20197;-68
2023/04/30 12:38:01;;;;;;;2.20;2.10;;;;;;;;;;5084719;28;20304;-68
2023/04/30 12:40:27;;;;;;;2.50;2.40;;;;;;;;;;5084747;28;20196;-68
2023/04/30 12:42:59;;;;;;;2.17;2.08;;;;;;;;;;5084700;28;20200;-68
2023/04/30 12:45:45;;;;;;;2.50;2.25;;;;;;;;;;5084803;28;20204;-68
2023/04/30 12:48:13;;;;;;;3.40;2.53;;;;;;;;;;5084983;28;20196;-68
2023/04/30 12:50:39;;;;;;;3.63;2.28;;;;;;;;;;5084620;28;20522;-69
2023/04/30 12:53:06;;;;;;;1.92;1.83;;;;;;;;;;5084623;28;20238;-68
2023/04/30 12:55:33;;;;;;;2.83;2.50;;;;;;;;;;5084470;28;20519;-68
2023/04/30 12:58:03;;;;;;;2.78;2.58;;;;;;;;;;5084447;28;20535;-69
2023/04/30 13:00:30;;;;;;;2.15;1.98;;;;;;;;;;5084523;28;20197;-68
2023/04/30 13:02:56;;;;;;;3.35;2.67;;;;;;;;;;5084463;28;20200;-68
2023/04/30 13:05:24;;;;;;;2.42;2.33;;;;;;;;;;5084915;28;20503;-68
2023/04/30 13:07:54;;;;;;;5.25;2.45;;;;;;;;;;5084402;28;20199;-68
2023/04/30 13:10:21;;;;;;;2.45;2.30;;;;;;;;;;5076480;28;20206;-68
2023/04/30 13:12:47;;;;;;;2.78;2.50;;;;;;;;;;5084377;28;20511;-69
2023/04/30 13:15:14;;;;;;;4.32;2.47;;;;;;;;;;5084520;28;20250;-69
2023/04/30 13:17:40;;;;;;;2.40;2.30;;;;;;;;;;5084253;28;20229;-69
2023/04/30 13:20:07;;;;;;;2.45;2.25;;;;;;;;;;5084036;28;20253;-68
2023/04/30 13:22:36;;;;;;;2.15;1.98;;;;;;;;;;5083947;28;20197;-68
2023/04/30 13:25:02;;;;;;;1.98;1.88;;;;;;;;;;5084318;28;20201;-68
2023/04/30 13:27:29;;;;;;;2.20;2.00;;;;;;;;;;5083931;28;20227;-68
2023/04/30 13:29:55;;;;;;;1.85;1.85;;;;;;;;;;5084032;28;20238;-68
2023/04/30 13:32:21;;;;;;;2.05;1.95;;;;;;;;;;5084097;28;20219;-68
2023/04/30 13:34:48;;;;;;;3.13;1.83;;;;;;;;;;5083996;28;20238;-68
2023/04/30 13:37:14;;;;;;;2.20;1.80;;;;;;;;;;5083605;28;20224;-68
2023/04/30 13:39:41;;;;;;;2.00;2.00;;;;;;;;;;5083964;28;20195;-68
2023/04/30 13:42:08;;;;;;;2.90;2.00;;;;;;;;;;5084027;28;20197;-68
2023/04/30 13:44:34;;;;;;;2.13;1.90;;;;;;;;;;5083819;28;20234;-68
2023/04/30 13:47:01;;;;;;;2.33;2.13;;;;;;;;;;5083799;28;20551;-68
2023/04/30 13:49:27;;;;;;;2.45;2.10;;;;;;;;;;5083673;28;20205;-68
2023/04/30 13:51:53;;;;;;;1.80;1.80;;;;;;;;;;5083456;28;20261;-68
2023/04/30 13:54:19;;;;;;;2.03;1.88;;;;;;;;;;5083574;28;20196;-68
2023/04/30 13:56:47;;;;;;;2.22;2.20;;;;;;;;;;5083631;28;20305;-69
2023/04/30 13:59:14;;;;;;;3.30;2.30;;;;;;;;;;5083132;28;20220;-69
2023/04/30 14:01:41;;;;;;;2.15;1.73;;;;;;;;;;5083202;28;20235;-69
2023/04/30 14:04:08;;;;;;;5.95;2.05;;;;;;;;;;5083270;28;20227;-69
2023/04/30 14:06:34;;;;;;;2.03;1.90;;;;;;;;;;5083157;28;20515;-69
2023/04/30 14:09:00;;;;;;;1.92;1.83;;;;;;;;;;5083204;28;20196;-69
2023/04/30 14:11:27;;;;;;;2.00;1.90;;;;;;;;;;5083256;28;20216;-69
2023/04/30 14:13:54;;;;;;;3.08;1.95;;;;;;;;;;5083032;28;20208;-69
2023/04/30 14:16:21;;;;;;;2.42;1.65;;;;;;;;;;5074080;28;20203;-69
2023/04/30 14:18:47;;;;;;;1.70;1.70;;;;;;;;;;5082678;28;20216;-61
2023/04/30 14:21:14;;;;;;;1.90;1.90;;;;;;;;;;5082921;28;20209;-61
2023/04/30 14:23:41;;;;;;;1.80;1.80;;;;;;;;;;5082590;28;20203;-61
2023/04/30 14:26:08;;;;;;;2.15;2.05;;;;;;;;;;5083001;28;20207;-61
2023/04/30 14:28:34;;;;;;;2.00;1.90;;;;;;;;;;5083128;28;20409;-61
2023/04/30 14:31:02;;;;;;;1.83;1.70;;;;;;;;;;5082746;28;20376;-61
2023/04/30 14:33:29;;;;;;;2.00;1.90;;;;;;;;;;5082768;28;20201;-61
2023/04/30 14:35:55;;;;;;;2.40;2.00;;;;;;;;;;5082581;28;20507;-61
2023/04/30 14:38:21;;;;;;;2.30;2.10;;;;;;;;;;5082438;28;20266;-61
2023/04/30 14:40:47;;;;;;;2.10;2.00;;;;;;;;;;5082563;28;20429;-61
2023/04/30 14:43:14;;;;;;;2.38;2.28;;;;;;;;;;5082509;28;20228;-61